createdAt,value
2022-07-27T00:00:51.221Z,57
2022-07-27T00:02:52.100Z,57
2022-07-27T00:04:50.903Z,57
2022-07-27T00:06:50.206Z,57
2022-07-27T00:08:50.128Z,57
2022-07-27T00:10:51.001Z,57
2022-07-27T00:12:50.295Z,57
2022-07-27T00:14:50.314Z,57
2022-07-27T00:16:51.127Z,57
2022-07-27T00:18:51.000Z,57
2022-07-27T00:20:50.814Z,58
2022-07-27T00:22:50.796Z,59
2022-07-27T00:24:50.170Z,58
2022-07-27T00:26:50.365Z,58
2022-07-27T00:28:50.326Z,57
2022-07-27T00:30:50.419Z,57
2022-07-27T00:32:50.497Z,57
2022-07-27T00:34:51.051Z,58
2022-07-27T00:36:50.314Z,58
2022-07-27T00:38:50.363Z,58
2022-07-27T00:40:50.292Z,58
2022-07-27T00:42:50.166Z,58
2022-07-27T00:44:50.096Z,58
2022-07-27T00:46:50.922Z,58
2022-07-27T00:48:50.485Z,58
2022-07-27T00:50:50.393Z,58
2022-07-27T00:52:50.440Z,59
2022-07-27T00:54:50.661Z,59
2022-07-27T00:56:50.996Z,60
2022-07-27T00:58:51.014Z,59
2022-07-27T01:00:51.028Z,60
2022-07-27T01:02:52.196Z,62
2022-07-27T01:04:57.529Z,61
2022-07-27T01:06:50.704Z,61
2022-07-27T01:08:50.828Z,60
2022-07-27T01:10:51.149Z,60
2022-07-27T01:12:50.149Z,61
2022-07-27T01:14:50.125Z,61
2022-07-27T01:16:50.416Z,61
2022-07-27T01:18:50.426Z,61
2022-07-27T01:20:50.471Z,60
2022-07-27T01:22:50.364Z,60
2022-07-27T01:24:50.414Z,62
2022-07-27T01:26:50.563Z,62
2022-07-27T01:28:50.638Z,61
2022-07-27T01:30:51.369Z,60
2022-07-27T01:32:50.512Z,60
2022-07-27T01:34:50.714Z,60
2022-07-27T01:36:50.044Z,60
2022-07-27T01:38:50.930Z,62
2022-07-27T01:40:50.850Z,63
2022-07-27T01:42:50.933Z,63
2022-07-27T01:44:50.908Z,62
2022-07-27T01:46:51.528Z,62
2022-07-27T01:48:51.086Z,62
2022-07-27T01:50:50.253Z,61
2022-07-27T01:52:50.744Z,61
2022-07-27T01:54:50.783Z,62
2022-07-27T01:56:50.107Z,63
2022-07-27T01:58:50.100Z,62
2022-07-27T02:00:50.213Z,62
2022-07-27T02:02:50.179Z,62
2022-07-27T02:04:50.904Z,62
2022-07-27T02:06:50.180Z,62
2022-07-27T02:08:50.737Z,62
2022-07-27T02:10:50.716Z,62
2022-07-27T02:12:50.786Z,62
2022-07-27T02:14:50.357Z,62
2022-07-27T02:16:51.836Z,62
2022-07-27T02:18:50.874Z,62
2022-07-27T02:20:51.477Z,63
2022-07-27T02:22:50.453Z,64
2022-07-27T02:24:50.421Z,63
2022-07-27T02:26:50.755Z,62
2022-07-27T02:28:50.778Z,62
2022-07-27T02:30:50.930Z,63
2022-07-27T02:32:51.279Z,63
2022-07-27T02:34:50.729Z,63
2022-07-27T02:36:50.639Z,63
2022-07-27T02:38:50.566Z,63
2022-07-27T02:40:50.556Z,63
2022-07-27T02:42:50.628Z,63
2022-07-27T02:44:50.525Z,64
2022-07-27T02:46:50.696Z,63
2022-07-27T02:48:51.059Z,63
2022-07-27T02:50:50.273Z,63
2022-07-27T02:52:50.263Z,65
2022-07-27T02:54:50.211Z,65
2022-07-27T02:56:50.490Z,64
2022-07-27T02:58:50.542Z,64
2022-07-27T03:01:03.362Z,64
2022-07-27T03:02:50.575Z,64
2022-07-27T03:04:50.696Z,65
2022-07-27T03:06:50.964Z,64
2022-07-27T03:08:50.905Z,64
2022-07-27T03:10:50.813Z,64
2022-07-27T03:12:50.735Z,64
2022-07-27T03:14:50.896Z,64
2022-07-27T03:16:50.141Z,64
2022-07-27T03:18:50.503Z,64
2022-07-27T03:20:51.065Z,64
2022-07-27T03:22:50.288Z,64
2022-07-27T03:24:50.300Z,64
2022-07-27T03:26:50.535Z,64
2022-07-27T03:28:50.436Z,64
2022-07-27T03:30:50.716Z,64
2022-07-27T03:32:50.610Z,64
2022-07-27T03:34:50.965Z,64
2022-07-27T03:36:50.217Z,64
2022-07-27T03:38:50.144Z,65
2022-07-27T03:40:50.112Z,64
2022-07-27T03:42:50.142Z,64
2022-07-27T03:44:50.245Z,64
2022-07-27T03:46:50.348Z,65
2022-07-27T03:48:50.770Z,65
2022-07-27T03:50:50.643Z,65
2022-07-27T03:52:50.933Z,64
2022-07-27T03:54:50.953Z,64
2022-07-27T03:56:50.389Z,65
2022-07-27T03:58:50.293Z,67
2022-07-27T04:00:50.667Z,67
2022-07-27T04:02:51.233Z,67
2022-07-27T04:04:50.845Z,68
2022-07-27T04:06:50.195Z,67
2022-07-27T04:09:09.063Z,68
2022-07-27T04:10:50.716Z,68
2022-07-27T04:12:50.657Z,68
2022-07-27T04:14:50.689Z,67
2022-07-27T04:16:51.358Z,67
2022-07-27T04:18:50.522Z,67
2022-07-27T04:20:50.223Z,66
2022-07-27T04:22:51.048Z,66
2022-07-27T04:24:50.975Z,66
2022-07-27T04:26:50.380Z,66
2022-07-27T04:28:50.534Z,66
2022-07-27T04:30:50.767Z,66
2022-07-27T04:32:50.966Z,66
2022-07-27T04:34:50.242Z,66
2022-07-27T04:36:50.453Z,66
2022-07-27T04:38:50.452Z,66
2022-07-27T04:40:58.796Z,67
2022-07-27T04:42:50.568Z,67
2022-07-27T04:44:50.510Z,67
2022-07-27T04:46:50.732Z,66
2022-07-27T04:48:51.172Z,66
2022-07-27T04:50:50.281Z,66
2022-07-27T04:52:50.367Z,66
2022-07-27T04:54:50.507Z,66
2022-07-27T04:56:50.684Z,66
2022-07-27T04:58:50.777Z,66
2022-07-27T05:00:51.000Z,66
2022-07-27T05:02:50.290Z,66
2022-07-27T05:04:50.756Z,67
2022-07-27T05:06:50.119Z,67
2022-07-27T05:08:51.041Z,68
2022-07-27T05:10:50.477Z,68
2022-07-27T05:12:50.511Z,68
2022-07-27T05:14:50.527Z,67
2022-07-27T05:16:51.657Z,67
2022-07-27T05:18:50.604Z,67
2022-07-27T05:20:51.199Z,66
2022-07-27T05:22:50.193Z,65
2022-07-27T05:24:51.039Z,65
2022-07-27T05:26:50.162Z,61
2022-07-27T05:28:50.197Z,61
2022-07-27T05:30:50.183Z,61
2022-07-27T05:32:50.163Z,61
2022-07-27T05:34:50.524Z,61
2022-07-27T05:36:50.734Z,58
2022-07-27T05:38:50.586Z,58
2022-07-27T05:40:50.587Z,58
2022-07-27T05:42:50.557Z,56
2022-07-27T05:44:50.852Z,56
2022-07-27T05:46:50.048Z,56
2022-07-27T05:48:50.631Z,56
2022-07-27T05:50:50.595Z,55
2022-07-27T05:52:50.673Z,56
2022-07-27T05:54:51.044Z,55
2022-07-27T05:56:50.288Z,55
2022-07-27T05:58:50.201Z,55
2022-07-27T06:00:50.498Z,56
2022-07-27T06:02:50.547Z,56
2022-07-27T06:04:51.012Z,56
2022-07-27T06:06:50.194Z,56
2022-07-27T06:08:50.109Z,56
2022-07-27T06:10:50.261Z,57
2022-07-27T06:12:50.393Z,57
2022-07-27T06:14:51.972Z,57
2022-07-27T06:16:50.906Z,58
2022-07-27T06:18:50.988Z,58
2022-07-27T06:20:50.825Z,58
2022-07-27T06:22:51.028Z,58
2022-07-27T06:24:50.916Z,58
2022-07-27T06:26:50.230Z,58
2022-07-27T06:28:51.074Z,58
2022-07-27T06:30:50.331Z,58
2022-07-27T06:32:50.383Z,58
2022-07-27T06:34:50.980Z,58
2022-07-27T06:36:50.265Z,59
2022-07-27T06:38:50.680Z,59
2022-07-27T06:40:50.739Z,59
2022-07-27T06:42:50.639Z,59
2022-07-27T06:44:50.535Z,59
2022-07-27T06:46:51.220Z,59
2022-07-27T06:48:50.637Z,59
2022-07-27T06:50:50.503Z,59
2022-07-27T06:52:50.714Z,59
2022-07-27T06:54:50.497Z,59
2022-07-27T06:56:50.668Z,60
2022-07-27T06:58:50.558Z,60
2022-07-27T07:00:51.532Z,60
2022-07-27T07:02:50.697Z,60
2022-07-27T07:04:50.050Z,59
2022-07-27T07:06:50.235Z,60
2022-07-27T07:08:50.415Z,60
2022-07-27T07:10:50.332Z,60
2022-07-27T07:12:50.226Z,60
2022-07-27T07:14:51.054Z,60
2022-07-27T07:16:51.046Z,60
2022-07-27T07:18:53.225Z,60
2022-07-27T07:20:50.317Z,60
2022-07-27T07:22:50.536Z,60
2022-07-27T07:24:50.568Z,60
2022-07-27T07:26:51.033Z,60
2022-07-27T07:28:51.008Z,60
2022-07-27T07:30:50.781Z,60
2022-07-27T07:32:50.892Z,60
2022-07-27T07:34:50.327Z,60
2022-07-27T07:36:50.542Z,60
2022-07-27T07:38:50.407Z,60
2022-07-27T07:40:50.466Z,60
2022-07-27T07:42:50.514Z,60
2022-07-27T07:44:50.712Z,60
2022-07-27T07:46:50.462Z,59
2022-07-27T07:48:50.761Z,60
2022-07-27T07:50:54.533Z,60
2022-07-27T07:52:50.676Z,60
2022-07-27T07:54:50.663Z,59
2022-07-27T07:56:51.009Z,59
2022-07-27T07:58:50.085Z,59
2022-07-27T08:00:50.213Z,59
2022-07-27T08:02:50.658Z,59
2022-07-27T08:04:50.306Z,59
2022-07-27T08:06:50.135Z,59
2022-07-27T08:08:51.053Z,59
2022-07-27T08:10:50.335Z,59
2022-07-27T08:12:50.201Z,59
2022-07-27T08:14:50.234Z,59
2022-07-27T08:16:50.541Z,58
2022-07-27T08:18:50.560Z,58
2022-07-27T08:20:50.619Z,58
2022-07-27T08:22:50.528Z,58
2022-07-27T08:24:50.423Z,58
2022-07-27T08:26:50.949Z,58
2022-07-27T08:28:51.242Z,58
2022-07-27T08:30:50.228Z,57
2022-07-27T08:32:50.199Z,57
2022-07-27T08:34:50.511Z,56
2022-07-27T08:36:50.989Z,56
2022-07-27T08:38:50.917Z,56
2022-07-27T08:40:51.110Z,57
2022-07-27T08:42:52.333Z,57
2022-07-27T08:44:50.447Z,57
2022-07-27T08:46:51.381Z,57
2022-07-27T08:48:51.292Z,57
2022-07-27T08:50:50.339Z,57
2022-07-27T08:52:50.410Z,57
2022-07-27T08:54:50.663Z,57
2022-07-27T08:56:50.952Z,57
2022-07-27T08:58:51.016Z,57
2022-07-27T09:00:50.846Z,56
2022-07-27T09:02:51.191Z,56
2022-07-27T09:04:50.540Z,56
2022-07-27T09:06:54.942Z,56
2022-07-27T09:08:53.967Z,56
2022-07-27T09:10:51.054Z,56
2022-07-27T09:12:50.934Z,56
2022-07-27T09:14:54.480Z,56
2022-07-27T09:17:47.746Z,56
2022-07-27T09:18:50.860Z,56
2022-07-27T09:20:51.082Z,56
2022-07-27T09:22:50.148Z,56
2022-07-27T09:24:50.975Z,56
2022-07-27T09:26:50.213Z,56
2022-07-27T09:28:50.784Z,56
2022-07-27T09:30:51.049Z,56
2022-07-27T09:32:53.494Z,56
2022-07-27T09:34:50.066Z,56
2022-07-27T09:36:50.431Z,56
2022-07-27T09:39:12.338Z,55
2022-07-27T09:40:50.688Z,55
2022-07-27T09:44:57.449Z,54
2022-07-27T09:46:50.666Z,54
2022-07-27T09:48:51.482Z,54
2022-07-27T09:51:58.062Z,54
2022-07-27T09:52:50.063Z,54
2022-07-27T09:54:51.038Z,54
2022-07-27T09:56:50.551Z,54
2022-07-27T09:58:50.448Z,54
2022-07-27T10:00:50.639Z,54
2022-07-27T10:02:50.804Z,54
2022-07-27T10:14:50.803Z,54
2022-07-27T10:16:50.156Z,54
2022-07-27T10:18:56.488Z,54
2022-07-27T10:20:50.499Z,54
2022-07-27T10:22:50.746Z,54
2022-07-27T10:24:53.799Z,53
2022-07-27T10:26:50.389Z,53
2022-07-27T10:28:50.457Z,52
2022-07-27T10:30:55.437Z,53
2022-07-27T10:32:50.688Z,53
2022-07-27T10:34:50.253Z,53
2022-07-27T10:36:50.610Z,52
2022-07-27T10:38:50.851Z,52
2022-07-27T10:40:50.833Z,52
2022-07-27T10:42:55.326Z,52
2022-07-27T10:44:50.455Z,52
2022-07-27T10:46:51.358Z,51
2022-07-27T10:48:51.026Z,52
2022-07-27T10:50:50.274Z,52
2022-07-27T10:52:50.389Z,51
2022-07-27T10:55:00.648Z,51
2022-07-27T10:56:51.020Z,51
2022-07-27T10:58:51.066Z,51
2022-07-27T11:00:56.172Z,50
2022-07-27T11:02:50.383Z,50
2022-07-27T11:04:50.537Z,50
2022-07-27T11:07:32.178Z,50
2022-07-27T11:10:02.813Z,50
2022-07-27T11:10:50.309Z,50
2022-07-27T11:12:50.342Z,50
2022-07-27T11:14:50.587Z,50
2022-07-27T11:17:58.368Z,50
2022-07-27T11:18:54.502Z,50
2022-07-27T11:20:50.735Z,50
2022-07-27T11:23:51.552Z,50
2022-07-27T11:24:50.878Z,49
2022-07-27T11:26:50.441Z,49
2022-07-27T11:28:50.797Z,49
2022-07-27T11:30:51.616Z,48
2022-07-27T11:32:51.065Z,48
2022-07-27T11:34:50.612Z,49
2022-07-27T11:36:50.194Z,49
2022-07-27T11:38:50.204Z,49
2022-07-27T11:41:47.837Z,49
2022-07-27T11:42:51.496Z,49
2022-07-27T11:44:51.693Z,49
2022-07-27T11:46:50.228Z,49
2022-07-27T11:49:10.196Z,48
2022-07-27T11:50:50.600Z,48
2022-07-27T11:52:50.591Z,48
2022-07-27T11:54:50.631Z,48
2022-07-27T11:56:50.946Z,48
2022-07-27T11:58:50.134Z,48
2022-07-27T12:00:50.943Z,48
2022-07-27T12:02:51.498Z,47
2022-07-27T12:04:50.869Z,48
2022-07-27T12:06:50.217Z,48
2022-07-27T12:08:50.146Z,47
2022-07-27T12:10:50.373Z,47
2022-07-27T12:12:50.318Z,45
2022-07-27T12:14:50.323Z,46
2022-07-27T12:16:50.515Z,46
2022-07-27T12:18:50.445Z,46
2022-07-27T12:20:50.494Z,46
2022-07-27T12:22:50.628Z,45
2022-07-27T12:24:51.283Z,46
2022-07-27T12:26:50.851Z,45
2022-07-27T12:28:50.966Z,45
2022-07-27T12:30:51.332Z,45
2022-07-27T12:32:56.230Z,44
2022-07-27T12:34:50.214Z,44
2022-07-27T12:36:50.681Z,44
2022-07-27T12:38:50.755Z,44
2022-07-27T12:40:51.083Z,45
2022-07-27T12:42:50.167Z,44
2022-07-27T12:44:50.352Z,44
2022-07-27T12:46:50.790Z,45
2022-07-27T12:48:51.043Z,44
2022-07-27T12:50:50.194Z,44
2022-07-27T12:52:50.278Z,44
2022-07-27T12:54:50.258Z,44
2022-07-27T12:56:50.750Z,44
2022-07-27T12:58:50.898Z,44
2022-07-27T13:00:50.659Z,44
2022-07-27T13:02:51.226Z,44
2022-07-27T13:04:50.779Z,43
2022-07-27T13:06:50.260Z,44
2022-07-27T13:08:50.233Z,44
2022-07-27T13:10:50.405Z,44
2022-07-27T13:12:50.632Z,44
2022-07-27T13:14:50.507Z,44
2022-07-27T13:16:51.498Z,44
2022-07-27T13:18:50.811Z,43
2022-07-27T13:20:50.771Z,42
2022-07-27T13:22:50.902Z,42
2022-07-27T13:24:50.749Z,42
2022-07-27T13:26:51.053Z,42
2022-07-27T13:28:51.939Z,42
2022-07-27T13:30:50.886Z,42
2022-07-27T13:32:50.884Z,42
2022-07-27T13:34:50.317Z,42
2022-07-27T13:36:50.711Z,42
2022-07-27T13:38:50.709Z,42
2022-07-27T13:40:50.628Z,41
2022-07-27T13:42:50.707Z,41
2022-07-27T13:45:12.416Z,41
2022-07-27T13:46:53.566Z,41
2022-07-27T13:48:50.975Z,41
2022-07-27T13:50:50.165Z,41
2022-07-27T13:52:50.206Z,41
2022-07-27T13:54:50.944Z,42
2022-07-27T13:56:50.296Z,41
2022-07-27T13:58:50.290Z,40
2022-07-27T14:00:50.689Z,40
2022-07-27T14:02:51.045Z,42
2022-07-27T14:04:50.795Z,42
2022-07-27T14:06:50.582Z,42
2022-07-27T14:08:50.527Z,42
2022-07-27T14:10:51.895Z,42
2022-07-27T14:12:59.377Z,42
2022-07-27T14:14:50.518Z,41
2022-07-27T14:16:51.348Z,41
2022-07-27T14:18:50.420Z,41
2022-07-27T14:20:50.417Z,41
2022-07-27T14:22:50.466Z,39
2022-07-27T14:24:50.333Z,39
2022-07-27T14:26:50.632Z,39
2022-07-27T14:28:50.741Z,39
2022-07-27T14:30:51.042Z,39
2022-07-27T14:32:50.148Z,39
2022-07-27T14:34:50.749Z,38
2022-07-27T14:36:50.962Z,38
2022-07-27T14:38:51.028Z,39
2022-07-27T14:40:50.467Z,38
2022-07-27T14:42:50.581Z,39
2022-07-27T14:44:50.632Z,39
2022-07-27T14:46:50.522Z,39
2022-07-27T14:49:07.670Z,39
2022-07-27T14:50:50.784Z,39
2022-07-27T14:52:50.843Z,39
2022-07-27T14:54:50.185Z,39
2022-07-27T14:56:50.769Z,39
2022-07-27T14:58:50.176Z,39
2022-07-27T15:00:50.637Z,39
2022-07-27T15:02:50.950Z,39
2022-07-27T15:04:50.601Z,39
2022-07-27T15:06:50.897Z,39
2022-07-27T15:08:50.087Z,40
2022-07-27T15:10:50.095Z,39
2022-07-27T15:12:50.195Z,39
2022-07-27T15:14:50.285Z,39
2022-07-27T15:16:50.684Z,39
2022-07-27T15:18:50.899Z,39
2022-07-27T15:20:50.166Z,39
2022-07-27T15:22:50.231Z,39
2022-07-27T15:24:50.485Z,39
2022-07-27T15:26:51.118Z,38
2022-07-27T15:28:50.232Z,38
2022-07-27T15:30:50.582Z,38
2022-07-27T15:32:50.799Z,38
2022-07-27T15:34:50.627Z,38
2022-07-27T15:36:52.870Z,37
2022-07-27T15:38:50.083Z,37
2022-07-27T15:40:50.316Z,37
2022-07-27T15:42:50.474Z,37
2022-07-27T15:44:50.558Z,37
2022-07-27T15:46:50.504Z,37
2022-07-27T15:48:51.008Z,38
2022-07-27T15:50:50.134Z,37
2022-07-27T15:52:50.158Z,37
2022-07-27T15:54:50.072Z,36
2022-07-27T15:56:50.492Z,37
2022-07-27T15:58:50.767Z,37
2022-07-27T16:00:51.298Z,37
2022-07-27T16:02:51.050Z,37
2022-07-27T16:04:50.653Z,37
2022-07-27T16:06:50.226Z,37
2022-07-27T16:08:50.515Z,37
2022-07-27T16:10:50.638Z,37
2022-07-27T16:12:50.779Z,37
2022-07-27T16:14:50.895Z,37
2022-07-27T16:16:50.609Z,37
2022-07-27T16:18:50.781Z,37
2022-07-27T16:20:50.829Z,36
2022-07-27T16:22:50.107Z,36
2022-07-27T16:24:50.354Z,36
2022-07-27T16:26:50.137Z,36
2022-07-27T16:28:50.570Z,36
2022-07-27T16:30:51.143Z,36
2022-07-27T16:32:50.175Z,36
2022-07-27T16:34:50.717Z,36
2022-07-27T16:36:50.269Z,36
2022-07-27T16:38:51.173Z,36
2022-07-27T16:40:50.270Z,36
2022-07-27T16:42:50.528Z,35
2022-07-27T16:44:50.546Z,35
2022-07-27T16:46:51.439Z,35
2022-07-27T16:48:50.896Z,35
2022-07-27T16:50:51.015Z,35
2022-07-27T16:52:50.409Z,35
2022-07-27T16:54:50.475Z,35
2022-07-27T16:56:51.033Z,35
2022-07-27T16:58:50.255Z,35
2022-07-27T17:00:50.257Z,35
2022-07-27T17:02:50.383Z,34
2022-07-27T17:04:50.422Z,35
2022-07-27T17:06:50.905Z,34
2022-07-27T17:08:50.795Z,35
2022-07-27T17:10:51.786Z,35
2022-07-27T17:12:51.869Z,35
2022-07-27T17:14:50.813Z,35
2022-07-27T17:16:52.913Z,34
2022-07-27T17:18:50.939Z,34
2022-07-27T17:20:50.950Z,34
2022-07-27T17:22:55.004Z,34
2022-07-27T17:24:50.187Z,34
2022-07-27T17:26:50.507Z,34
2022-07-27T17:28:50.724Z,34
2022-07-27T17:30:51.006Z,34
2022-07-27T17:32:50.899Z,34
2022-07-27T17:34:50.358Z,33
2022-07-27T17:36:50.825Z,33
2022-07-27T17:38:50.819Z,34
2022-07-27T17:40:50.877Z,33
2022-07-27T17:42:51.106Z,33
2022-07-27T17:44:50.068Z,33
2022-07-27T17:46:50.947Z,33
2022-07-27T17:48:51.216Z,33
2022-07-27T17:50:50.466Z,33
2022-07-27T17:52:50.386Z,34
2022-07-27T17:54:50.395Z,33
2022-07-27T17:56:50.622Z,33
2022-07-27T17:58:50.048Z,33
2022-07-27T18:00:50.898Z,34
2022-07-27T18:02:50.785Z,34
2022-07-27T18:04:50.508Z,34
2022-07-27T18:06:50.705Z,34
2022-07-27T18:08:50.562Z,34
2022-07-27T18:10:50.381Z,35
2022-07-27T18:12:50.280Z,36
2022-07-27T18:14:51.740Z,36
2022-07-27T18:16:50.056Z,36
2022-07-27T18:18:51.006Z,37
2022-07-27T18:20:50.977Z,37
2022-07-27T18:22:50.815Z,37
2022-07-27T18:24:50.630Z,38
2022-07-27T18:26:51.825Z,38
2022-07-27T18:28:50.753Z,38
2022-07-27T18:30:51.109Z,38
2022-07-27T18:32:50.854Z,38
2022-07-27T18:34:50.550Z,38
2022-07-27T18:36:50.915Z,39
2022-07-27T18:38:50.193Z,39
2022-07-27T18:40:50.171Z,40
2022-07-27T18:42:50.081Z,40
2022-07-27T18:44:50.962Z,40
2022-07-27T18:46:50.193Z,41
2022-07-27T18:48:51.390Z,41
2022-07-27T18:50:50.206Z,41
2022-07-27T18:52:50.974Z,41
2022-07-27T18:54:50.909Z,41
2022-07-27T18:56:50.327Z,42
2022-07-27T18:58:50.082Z,42
2022-07-27T19:00:55.213Z,42
2022-07-27T19:02:59.041Z,42
2022-07-27T19:04:50.698Z,42
2022-07-27T19:06:51.570Z,42
2022-07-27T19:08:50.554Z,42
2022-07-27T19:10:50.341Z,42
2022-07-27T19:12:50.275Z,42
2022-07-27T19:14:51.603Z,43
2022-07-27T19:16:51.437Z,43
2022-07-27T19:18:50.565Z,44
2022-07-27T19:20:50.345Z,43
2022-07-27T19:22:50.558Z,43
2022-07-27T19:24:55.620Z,43
2022-07-27T19:26:50.771Z,45
2022-07-27T19:28:50.806Z,44
2022-07-27T19:30:52.764Z,44
2022-07-27T19:32:50.921Z,44
2022-07-27T19:34:50.421Z,46
2022-07-27T19:36:50.741Z,46
2022-07-27T19:38:50.704Z,46
2022-07-27T19:40:50.901Z,46
2022-07-27T19:42:50.867Z,46
2022-07-27T19:44:50.695Z,46
2022-07-27T19:46:50.945Z,46
2022-07-27T19:48:51.196Z,46
2022-07-27T19:50:50.349Z,46
2022-07-27T19:52:50.204Z,46
2022-07-27T19:54:50.226Z,46
2022-07-27T19:56:50.398Z,45
2022-07-27T19:58:50.451Z,45
2022-07-27T20:00:50.194Z,46
2022-07-27T20:02:50.922Z,45
2022-07-27T20:04:50.185Z,45
2022-07-27T20:06:50.670Z,45
2022-07-27T20:08:50.578Z,45
2022-07-27T20:10:50.354Z,45
2022-07-27T20:12:50.367Z,45
2022-07-27T20:14:50.279Z,46
2022-07-27T20:16:50.925Z,46
2022-07-27T20:18:51.157Z,46
2022-07-27T20:20:50.328Z,46
2022-07-27T20:22:50.206Z,47
2022-07-27T20:24:50.514Z,47
2022-07-27T20:26:50.670Z,47
2022-07-27T20:28:50.925Z,48
2022-07-27T20:30:51.290Z,49
2022-07-27T20:32:50.576Z,49
2022-07-27T20:34:51.039Z,48
2022-07-27T20:36:50.060Z,48
2022-07-27T20:38:50.995Z,50
2022-07-27T20:40:51.034Z,49
2022-07-27T20:42:50.970Z,49
2022-07-27T20:44:50.999Z,49
2022-07-27T20:46:50.230Z,48
2022-07-27T20:48:50.712Z,49
2022-07-27T20:50:52.229Z,49
2022-07-27T20:52:50.308Z,49
2022-07-27T20:54:50.277Z,49
2022-07-27T20:56:50.677Z,49
2022-07-27T20:58:50.528Z,49
2022-07-27T21:00:51.092Z,49
2022-07-27T21:02:51.700Z,51
2022-07-27T21:04:50.147Z,50
2022-07-27T21:06:50.446Z,50
2022-07-27T21:08:50.521Z,52
2022-07-27T21:10:51.069Z,51
2022-07-27T21:12:50.053Z,51
2022-07-27T21:14:50.973Z,51
2022-07-27T21:16:50.875Z,51
2022-07-27T21:18:50.712Z,51
2022-07-27T21:20:50.623Z,53
2022-07-27T21:22:50.722Z,53
2022-07-27T21:24:50.547Z,52
2022-07-27T21:26:50.728Z,52
2022-07-27T21:28:50.993Z,52
2022-07-27T21:30:50.158Z,52
2022-07-27T21:32:51.337Z,52
2022-07-27T21:34:50.973Z,52
2022-07-27T21:36:50.128Z,52
2022-07-27T21:38:51.045Z,52
2022-07-27T21:40:50.203Z,52
2022-07-27T21:42:50.204Z,52
2022-07-27T21:44:50.173Z,52
2022-07-27T21:46:50.331Z,52
2022-07-27T21:48:50.627Z,52
2022-07-27T21:50:50.492Z,52
2022-07-27T21:52:50.654Z,52
2022-07-27T21:54:50.616Z,53
2022-07-27T21:56:51.281Z,53
2022-07-27T21:58:50.210Z,53
2022-07-27T22:00:50.801Z,53
2022-07-27T22:02:50.701Z,53
2022-07-27T22:04:51.099Z,53
2022-07-27T22:06:50.246Z,54
2022-07-27T22:14:51.054Z,54
2022-07-27T22:16:50.657Z,54
2022-07-27T22:18:50.699Z,54
2022-07-27T22:20:50.691Z,54
2022-07-27T22:22:50.684Z,54
2022-07-27T22:24:50.802Z,54
2022-07-27T22:26:50.044Z,54
2022-07-27T22:28:50.130Z,55
2022-07-27T22:31:23.480Z,55
2022-07-27T22:32:50.630Z,55
2022-07-27T22:34:50.929Z,55
2022-07-27T22:36:50.333Z,56
2022-07-27T22:38:50.126Z,56
2022-07-27T22:40:51.058Z,55
2022-07-27T22:42:51.755Z,55
2022-07-27T22:44:50.714Z,55
2022-07-27T22:46:50.973Z,55
2022-07-27T22:48:51.253Z,55
2022-07-27T22:50:50.287Z,55
2022-07-27T22:52:50.135Z,55
2022-07-27T22:54:50.062Z,55
2022-07-27T22:56:50.339Z,56
2022-07-27T22:58:50.325Z,56
2022-07-27T23:00:55.958Z,55
2022-07-27T23:02:50.753Z,55
2022-07-27T23:04:50.531Z,57
2022-07-27T23:06:50.841Z,57
2022-07-27T23:08:50.721Z,57
2022-07-27T23:10:50.759Z,56
2022-07-27T23:12:50.686Z,56
2022-07-27T23:14:50.648Z,56
2022-07-27T23:16:51.075Z,56
2022-07-27T23:18:50.988Z,56
2022-07-27T23:20:50.129Z,56
2022-07-27T23:22:51.456Z,56
2022-07-27T23:24:52.190Z,56
2022-07-27T23:26:50.376Z,57
2022-07-27T23:28:50.484Z,57
2022-07-27T23:30:50.304Z,57
2022-07-27T23:32:50.340Z,56
2022-07-27T23:34:50.793Z,57
2022-07-27T23:36:50.888Z,57
2022-07-27T23:38:50.812Z,57
2022-07-27T23:40:50.782Z,57
2022-07-27T23:42:50.748Z,57
2022-07-27T23:44:53.382Z,57
2022-07-27T23:46:51.130Z,57
2022-07-27T23:48:50.508Z,57
2022-07-27T23:50:50.508Z,58
2022-07-27T23:52:50.458Z,58
2022-07-27T23:54:50.366Z,58
2022-07-27T23:56:50.471Z,58
2022-07-27T23:58:50.342Z,58
